sensor_id;sensor_type;location;lat;lon;timestamp;P1;durP1;ratioP1;P2;durP2;ratioP2
13090;SDS011;6611;52.604;13.438;2022-11-02T00:04:40;13.37;;;8.20;;
13090;SDS011;6611;52.604;13.438;2022-11-02T00:09:43;10.93;;;7.70;;
13090;SDS011;6611;52.604;13.438;2022-11-02T00:14:44;14.33;;;8.67;;
13090;SDS011;6611;52.604;13.438;2022-11-02T00:19:46;9.70;;;7.27;;
13090;SDS011;6611;52.604;13.438;2022-11-02T00:24:49;11.57;;;8.90;;
13090;SDS011;6611;52.604;13.438;2022-11-02T00:29:51;13.40;;;8.33;;
13090;SDS011;6611;52.604;13.438;2022-11-02T00:34:52;11.90;;;8.37;;
13090;SDS011;6611;52.604;13.438;2022-11-02T00:39:55;11.83;;;7.80;;
13090;SDS011;6611;52.604;13.438;2022-11-02T00:44:57;9.97;;;7.23;;
13090;SDS011;6611;52.604;13.438;2022-11-02T00:49:58;8.87;;;6.53;;
13090;SDS011;6611;52.604;13.438;2022-11-02T00:55:01;7.40;;;5.77;;
13090;SDS011;6611;52.604;13.438;2022-11-02T01:00:03;11.03;;;6.13;;
13090;SDS011;6611;52.604;13.438;2022-11-02T01:05:06;7.63;;;5.17;;
13090;SDS011;6611;52.604;13.438;2022-11-02T01:10:10;10.70;;;5.80;;
13090;SDS011;6611;52.604;13.438;2022-11-02T01:15:12;9.43;;;5.40;;
13090;SDS011;6611;52.604;13.438;2022-11-02T01:20:13;8.23;;;5.17;;
13090;SDS011;6611;52.604;13.438;2022-11-02T01:25:17;7.50;;;5.30;;
13090;SDS011;6611;52.604;13.438;2022-11-02T01:30:18;8.93;;;5.40;;
13090;SDS011;6611;52.604;13.438;2022-11-02T01:35:20;9.40;;;5.10;;
13090;SDS011;6611;52.604;13.438;2022-11-02T01:40:23;6.93;;;5.00;;
13090;SDS011;6611;52.604;13.438;2022-11-02T01:45:24;7.87;;;4.93;;
13090;SDS011;6611;52.604;13.438;2022-11-02T01:50:26;5.37;;;4.50;;
13090;SDS011;6611;52.604;13.438;2022-11-02T01:55:30;7.60;;;5.50;;
13090;SDS011;6611;52.604;13.438;2022-11-02T02:00:34;7.90;;;5.50;;
13090;SDS011;6611;52.604;13.438;2022-11-02T02:05:38;6.37;;;4.70;;
13090;SDS011;6611;52.604;13.438;2022-11-02T02:10:43;6.53;;;4.67;;
13090;SDS011;6611;52.604;13.438;2022-11-02T02:15:47;7.73;;;4.77;;
13090;SDS011;6611;52.604;13.438;2022-11-02T02:20:58;6.53;;;5.00;;
13090;SDS011;6611;52.604;13.438;2022-11-02T02:31:43;8.03;;;4.60;;
13090;SDS011;6611;52.604;13.438;2022-11-02T02:36:55;5.77;;;4.67;;
13090;SDS011;6611;52.604;13.438;2022-11-02T02:42:01;7.03;;;5.07;;
13090;SDS011;6611;52.604;13.438;2022-11-02T02:47:12;7.97;;;4.30;;
13090;SDS011;6611;52.604;13.438;2022-11-02T02:52:17;5.83;;;4.10;;
13090;SDS011;6611;52.604;13.438;2022-11-02T02:57:21;5.87;;;4.10;;
13090;SDS011;6611;52.604;13.438;2022-11-02T03:02:28;5.87;;;4.27;;
13090;SDS011;6611;52.604;13.438;2022-11-02T03:07:32;4.27;;;3.47;;
13090;SDS011;6611;52.604;13.438;2022-11-02T03:12:36;4.70;;;3.17;;
13090;SDS011;6611;52.604;13.438;2022-11-02T03:17:48;5.20;;;3.37;;
13090;SDS011;6611;52.604;13.438;2022-11-02T03:23:01;4.00;;;3.20;;
13090;SDS011;6611;52.604;13.438;2022-11-02T03:28:11;3.57;;;2.50;;
13090;SDS011;6611;52.604;13.438;2022-11-02T03:33:18;4.37;;;2.80;;
13090;SDS011;6611;52.604;13.438;2022-11-02T03:38:24;3.43;;;2.83;;
13090;SDS011;6611;52.604;13.438;2022-11-02T03:43:31;2.57;;;2.03;;
13090;SDS011;6611;52.604;13.438;2022-11-02T03:48:38;2.20;;;2.00;;
13090;SDS011;6611;52.604;13.438;2022-11-02T03:53:43;2.77;;;1.63;;
13090;SDS011;6611;52.604;13.438;2022-11-02T03:58:48;3.47;;;2.07;;
13090;SDS011;6611;52.604;13.438;2022-11-02T04:03:52;2.13;;;1.70;;
13090;SDS011;6611;52.604;13.438;2022-11-02T04:08:53;4.80;;;1.70;;
13090;SDS011;6611;52.604;13.438;2022-11-02T04:13:55;1.40;;;1.27;;
13090;SDS011;6611;52.604;13.438;2022-11-02T04:19:15;2.50;;;1.63;;
13090;SDS011;6611;52.604;13.438;2022-11-02T04:24:29;2.60;;;1.57;;
13090;SDS011;6611;52.604;13.438;2022-11-02T04:29:48;6.63;;;1.83;;
13090;SDS011;6611;52.604;13.438;2022-11-02T04:34:51;6.17;;;2.30;;
13090;SDS011;6611;52.604;13.438;2022-11-02T04:39:53;5.87;;;1.53;;
13090;SDS011;6611;52.604;13.438;2022-11-02T04:44:54;7.37;;;1.77;;
13090;SDS011;6611;52.604;13.438;2022-11-02T04:49:57;1.97;;;1.20;;
13090;SDS011;6611;52.604;13.438;2022-11-02T04:54:59;2.57;;;1.50;;
13090;SDS011;6611;52.604;13.438;2022-11-02T05:00:00;1.80;;;1.20;;
13090;SDS011;6611;52.604;13.438;2022-11-02T05:05:08;3.57;;;1.50;;
13090;SDS011;6611;52.604;13.438;2022-11-02T05:10:11;4.97;;;1.50;;
13090;SDS011;6611;52.604;13.438;2022-11-02T05:15:13;4.73;;;1.70;;
13090;SDS011;6611;52.604;13.438;2022-11-02T05:20:16;1.97;;;1.40;;
13090;SDS011;6611;52.604;13.438;2022-11-02T05:25:17;2.83;;;1.33;;
13090;SDS011;6611;52.604;13.438;2022-11-02T05:30:19;2.50;;;1.77;;
13090;SDS011;6611;52.604;13.438;2022-11-02T05:35:22;3.83;;;1.80;;
13090;SDS011;6611;52.604;13.438;2022-11-02T05:40:23;4.00;;;1.20;;
13090;SDS011;6611;52.604;13.438;2022-11-02T05:45:25;2.77;;;1.30;;
13090;SDS011;6611;52.604;13.438;2022-11-02T05:50:28;2.10;;;1.53;;
13090;SDS011;6611;52.604;13.438;2022-11-02T05:55:30;2.20;;;1.07;;
13090;SDS011;6611;52.604;13.438;2022-11-02T06:00:31;6.03;;;1.53;;
13090;SDS011;6611;52.604;13.438;2022-11-02T06:05:34;3.67;;;1.50;;
13090;SDS011;6611;52.604;13.438;2022-11-02T06:10:36;4.27;;;1.60;;
13090;SDS011;6611;52.604;13.438;2022-11-02T06:15:41;2.70;;;1.20;;
13090;SDS011;6611;52.604;13.438;2022-11-02T06:20:44;3.70;;;1.53;;
13090;SDS011;6611;52.604;13.438;2022-11-02T06:25:49;2.97;;;1.20;;
13090;SDS011;6611;52.604;13.438;2022-11-02T06:30:51;1.77;;;1.33;;
13090;SDS011;6611;52.604;13.438;2022-11-02T06:35:56;5.43;;;1.57;;
13090;SDS011;6611;52.604;13.438;2022-11-02T06:40:58;4.47;;;1.50;;
13090;SDS011;6611;52.604;13.438;2022-11-02T06:46:03;4.57;;;1.20;;
13090;SDS011;6611;52.604;13.438;2022-11-02T06:51:06;7.70;;;1.87;;
13090;SDS011;6611;52.604;13.438;2022-11-02T06:56:08;3.47;;;1.27;;
13090;SDS011;6611;52.604;13.438;2022-11-02T07:01:09;4.93;;;1.87;;
13090;SDS011;6611;52.604;13.438;2022-11-02T07:06:13;4.60;;;1.70;;
13090;SDS011;6611;52.604;13.438;2022-11-02T07:11:15;4.57;;;1.30;;
13090;SDS011;6611;52.604;13.438;2022-11-02T07:16:16;4.13;;;1.60;;
13090;SDS011;6611;52.604;13.438;2022-11-02T07:21:19;3.93;;;1.37;;
13090;SDS011;6611;52.604;13.438;2022-11-02T07:26:21;3.43;;;1.30;;
13090;SDS011;6611;52.604;13.438;2022-11-02T07:31:22;4.27;;;1.53;;
13090;SDS011;6611;52.604;13.438;2022-11-02T07:36:25;2.43;;;1.40;;
13090;SDS011;6611;52.604;13.438;2022-11-02T07:41:27;5.53;;;1.33;;
13090;SDS011;6611;52.604;13.438;2022-11-02T07:46:28;5.33;;;1.60;;
13090;SDS011;6611;52.604;13.438;2022-11-02T07:51:31;2.43;;;1.30;;
13090;SDS011;6611;52.604;13.438;2022-11-02T07:56:33;4.03;;;1.43;;
13090;SDS011;6611;52.604;13.438;2022-11-02T08:01:34;3.27;;;1.10;;
13090;SDS011;6611;52.604;13.438;2022-11-02T08:06:37;4.57;;;0.97;;
13090;SDS011;6611;52.604;13.438;2022-11-02T08:11:39;5.70;;;1.10;;
13090;SDS011;6611;52.604;13.438;2022-11-02T08:16:40;5.10;;;1.20;;
13090;SDS011;6611;52.604;13.438;2022-11-02T08:21:43;1.97;;;1.03;;
13090;SDS011;6611;52.604;13.438;2022-11-02T08:26:44;2.33;;;1.03;;
13090;SDS011;6611;52.604;13.438;2022-11-02T08:31:46;2.00;;;1.07;;
13090;SDS011;6611;52.604;13.438;2022-11-02T08:36:49;5.97;;;1.40;;
13090;SDS011;6611;52.604;13.438;2022-11-02T08:41:51;2.57;;;0.97;;
13090;SDS011;6611;52.604;13.438;2022-11-02T08:46:53;1.40;;;1.00;;
13090;SDS011;6611;52.604;13.438;2022-11-02T08:51:56;3.83;;;1.23;;
13090;SDS011;6611;52.604;13.438;2022-11-02T08:56:58;6.13;;;1.60;;
13090;SDS011;6611;52.604;13.438;2022-11-02T09:01:59;2.17;;;1.27;;
13090;SDS011;6611;52.604;13.438;2022-11-02T09:07:02;3.13;;;1.30;;
13090;SDS011;6611;52.604;13.438;2022-11-02T09:12:04;3.13;;;1.50;;
13090;SDS011;6611;52.604;13.438;2022-11-02T09:17:06;3.80;;;1.07;;
13090;SDS011;6611;52.604;13.438;2022-11-02T09:22:09;4.23;;;1.27;;
13090;SDS011;6611;52.604;13.438;2022-11-02T09:27:10;3.43;;;1.20;;
13090;SDS011;6611;52.604;13.438;2022-11-02T09:32:12;2.63;;;1.20;;
13090;SDS011;6611;52.604;13.438;2022-11-02T09:37:15;4.67;;;1.40;;
13090;SDS011;6611;52.604;13.438;2022-11-02T09:42:17;3.30;;;1.03;;
13090;SDS011;6611;52.604;13.438;2022-11-02T09:47:22;2.23;;;1.20;;
13090;SDS011;6611;52.604;13.438;2022-11-02T09:52:29;4.77;;;1.10;;
13090;SDS011;6611;52.604;13.438;2022-11-02T09:57:34;2.53;;;0.83;;
13090;SDS011;6611;52.604;13.438;2022-11-02T10:02:40;3.43;;;0.97;;
13090;SDS011;6611;52.604;13.438;2022-11-02T10:08:06;6.20;;;1.43;;
13090;SDS011;6611;52.604;13.438;2022-11-02T10:13:20;4.17;;;0.83;;
13090;SDS011;6611;52.604;13.438;2022-11-02T10:18:29;2.03;;;0.93;;
13090;SDS011;6611;52.604;13.438;2022-11-02T10:23:33;3.93;;;1.10;;
13090;SDS011;6611;52.604;13.438;2022-11-02T10:28:38;2.77;;;0.70;;
13090;SDS011;6611;52.604;13.438;2022-11-02T10:33:42;3.67;;;1.30;;
13090;SDS011;6611;52.604;13.438;2022-11-02T10:38:49;2.63;;;0.90;;
13090;SDS011;6611;52.604;13.438;2022-11-02T10:44:11;4.03;;;1.03;;
13090;SDS011;6611;52.604;13.438;2022-11-02T10:49:24;5.37;;;1.03;;
13090;SDS011;6611;52.604;13.438;2022-11-02T10:54:42;2.23;;;0.73;;
13090;SDS011;6611;52.604;13.438;2022-11-02T10:59:44;2.77;;;0.90;;
13090;SDS011;6611;52.604;13.438;2022-11-02T11:05:26;3.77;;;1.20;;
13090;SDS011;6611;52.604;13.438;2022-11-02T11:10:28;1.63;;;0.77;;
13090;SDS011;6611;52.604;13.438;2022-11-02T11:15:35;2.83;;;0.97;;
13090;SDS011;6611;52.604;13.438;2022-11-02T11:20:37;2.43;;;0.80;;
13090;SDS011;6611;52.604;13.438;2022-11-02T11:25:41;1.27;;;0.90;;
13090;SDS011;6611;52.604;13.438;2022-11-02T11:30:43;4.13;;;0.90;;
13090;SDS011;6611;52.604;13.438;2022-11-02T11:35:46;6.70;;;0.90;;
13090;SDS011;6611;52.604;13.438;2022-11-02T11:40:51;2.87;;;1.13;;
13090;SDS011;6611;52.604;13.438;2022-11-02T11:45:55;2.53;;;0.90;;
13090;SDS011;6611;52.604;13.438;2022-11-02T11:50:58;1.77;;;0.90;;
13090;SDS011;6611;52.604;13.438;2022-11-02T11:56:03;5.73;;;1.40;;
13090;SDS011;6611;52.604;13.438;2022-11-02T12:01:05;3.17;;;1.10;;
13090;SDS011;6611;52.604;13.438;2022-11-02T12:06:14;3.73;;;1.20;;
13090;SDS011;6611;52.604;13.438;2022-11-02T12:11:28;2.70;;;0.90;;
13090;SDS011;6611;52.604;13.438;2022-11-02T12:16:43;4.53;;;1.03;;
13090;SDS011;6611;52.604;13.438;2022-11-02T12:22:00;2.47;;;1.00;;
13090;SDS011;6611;52.604;13.438;2022-11-02T12:27:09;1.77;;;0.80;;
13090;SDS011;6611;52.604;13.438;2022-11-02T12:32:26;3.67;;;1.00;;
13090;SDS011;6611;52.604;13.438;2022-11-02T12:37:41;2.67;;;1.00;;
13090;SDS011;6611;52.604;13.438;2022-11-02T12:42:56;1.23;;;0.83;;
13090;SDS011;6611;52.604;13.438;2022-11-02T12:48:03;6.13;;;1.00;;
13090;SDS011;6611;52.604;13.438;2022-11-02T12:53:09;3.20;;;1.10;;
13090;SDS011;6611;52.604;13.438;2022-11-02T12:58:25;3.77;;;1.00;;
13090;SDS011;6611;52.604;13.438;2022-11-02T13:03:33;3.33;;;1.77;;
13090;SDS011;6611;52.604;13.438;2022-11-02T13:08:40;2.30;;;0.80;;
13090;SDS011;6611;52.604;13.438;2022-11-02T13:13:48;1.87;;;0.70;;
13090;SDS011;6611;52.604;13.438;2022-11-02T13:18:53;1.90;;;1.30;;
13090;SDS011;6611;52.604;13.438;2022-11-02T13:23:55;1.77;;;0.90;;
13090;SDS011;6611;52.604;13.438;2022-11-02T13:29:03;4.63;;;0.80;;
13090;SDS011;6611;52.604;13.438;2022-11-02T13:34:09;1.07;;;0.90;;
13090;SDS011;6611;52.604;13.438;2022-11-02T13:39:15;1.63;;;0.90;;
13090;SDS011;6611;52.604;13.438;2022-11-02T13:44:26;1.90;;;0.80;;
13090;SDS011;6611;52.604;13.438;2022-11-02T13:49:37;1.77;;;0.90;;
13090;SDS011;6611;52.604;13.438;2022-11-02T13:54:43;2.53;;;1.00;;
13090;SDS011;6611;52.604;13.438;2022-11-02T13:59:50;1.90;;;1.03;;
13090;SDS011;6611;52.604;13.438;2022-11-02T14:04:51;1.30;;;1.10;;
13090;SDS011;6611;52.604;13.438;2022-11-02T14:09:55;1.40;;;0.63;;
13090;SDS011;6611;52.604;13.438;2022-11-02T14:20:45;2.47;;;0.90;;
13090;SDS011;6611;52.604;13.438;2022-11-02T14:25:47;4.47;;;1.23;;
13090;SDS011;6611;52.604;13.438;2022-11-02T14:30:50;2.50;;;0.93;;
13090;SDS011;6611;52.604;13.438;2022-11-02T14:36:03;2.23;;;1.23;;
13090;SDS011;6611;52.604;13.438;2022-11-02T14:41:17;1.20;;;0.80;;
13090;SDS011;6611;52.604;13.438;2022-11-02T14:46:35;0.90;;;0.73;;
13090;SDS011;6611;52.604;13.438;2022-11-02T14:51:52;1.20;;;0.83;;
13090;SDS011;6611;52.604;13.438;2022-11-02T14:56:59;0.90;;;0.70;;
13090;SDS011;6611;52.604;13.438;2022-11-02T15:02:04;1.10;;;0.70;;
13090;SDS011;6611;52.604;13.438;2022-11-02T15:07:17;1.40;;;0.70;;
13090;SDS011;6611;52.604;13.438;2022-11-02T15:12:31;1.70;;;0.80;;
13090;SDS011;6611;52.604;13.438;2022-11-02T15:17:49;1.23;;;0.70;;
13090;SDS011;6611;52.604;13.438;2022-11-02T15:22:57;2.00;;;0.90;;
13090;SDS011;6611;52.604;13.438;2022-11-02T15:28:05;3.80;;;1.20;;
13090;SDS011;6611;52.604;13.438;2022-11-02T15:33:14;3.00;;;0.80;;
13090;SDS011;6611;52.604;13.438;2022-11-02T15:38:25;2.43;;;0.80;;
13090;SDS011;6611;52.604;13.438;2022-11-02T15:43:35;1.63;;;0.90;;
13090;SDS011;6611;52.604;13.438;2022-11-02T15:48:47;1.80;;;0.93;;
13090;SDS011;6611;52.604;13.438;2022-11-02T15:54:04;1.47;;;0.90;;
13090;SDS011;6611;52.604;13.438;2022-11-02T15:59:20;2.27;;;0.80;;
13090;SDS011;6611;52.604;13.438;2022-11-02T16:04:42;1.20;;;0.80;;
13090;SDS011;6611;52.604;13.438;2022-11-02T16:09:46;1.33;;;0.73;;
13090;SDS011;6611;52.604;13.438;2022-11-02T16:14:52;1.47;;;0.80;;
13090;SDS011;6611;52.604;13.438;2022-11-02T16:20:07;3.40;;;1.40;;
13090;SDS011;6611;52.604;13.438;2022-11-02T16:25:14;3.30;;;1.10;;
13090;SDS011;6611;52.604;13.438;2022-11-02T16:30:20;3.83;;;1.67;;
13090;SDS011;6611;52.604;13.438;2022-11-02T16:35:23;3.00;;;1.20;;
13090;SDS011;6611;52.604;13.438;2022-11-02T16:40:26;3.37;;;1.37;;
13090;SDS011;6611;52.604;13.438;2022-11-02T16:45:32;2.80;;;1.20;;
13090;SDS011;6611;52.604;13.438;2022-11-02T16:50:37;2.10;;;1.13;;
13090;SDS011;6611;52.604;13.438;2022-11-02T16:55:40;3.53;;;1.20;;
13090;SDS011;6611;52.604;13.438;2022-11-02T17:00:54;4.70;;;1.57;;
13090;SDS011;6611;52.604;13.438;2022-11-02T17:05:59;2.80;;;1.97;;
13090;SDS011;6611;52.604;13.438;2022-11-02T17:11:04;2.03;;;1.63;;
13090;SDS011;6611;52.604;13.438;2022-11-02T17:16:08;5.37;;;1.50;;
13090;SDS011;6611;52.604;13.438;2022-11-02T17:21:22;3.20;;;1.73;;
13090;SDS011;6611;52.604;13.438;2022-11-02T17:26:31;2.83;;;1.57;;
13090;SDS011;6611;52.604;13.438;2022-11-02T17:31:36;3.37;;;1.60;;
13090;SDS011;6611;52.604;13.438;2022-11-02T17:36:40;2.40;;;1.47;;
13090;SDS011;6611;52.604;13.438;2022-11-02T17:41:43;3.63;;;1.40;;
13090;SDS011;6611;52.604;13.438;2022-11-02T17:47:09;4.20;;;1.33;;
13090;SDS011;6611;52.604;13.438;2022-11-02T17:52:12;2.43;;;1.40;;
13090;SDS011;6611;52.604;13.438;2022-11-02T17:57:17;4.77;;;1.80;;
13090;SDS011;6611;52.604;13.438;2022-11-02T18:02:19;4.33;;;1.90;;
13090;SDS011;6611;52.604;13.438;2022-11-02T18:07:21;5.23;;;3.10;;
13090;SDS011;6611;52.604;13.438;2022-11-02T18:12:24;6.70;;;3.20;;
13090;SDS011;6611;52.604;13.438;2022-11-02T18:17:26;7.60;;;2.50;;
13090;SDS011;6611;52.604;13.438;2022-11-02T18:22:27;2.53;;;1.90;;
13090;SDS011;6611;52.604;13.438;2022-11-02T18:27:30;5.43;;;2.70;;
13090;SDS011;6611;52.604;13.438;2022-11-02T18:32:34;4.93;;;2.47;;
13090;SDS011;6611;52.604;13.438;2022-11-02T18:37:36;4.87;;;2.80;;
13090;SDS011;6611;52.604;13.438;2022-11-02T18:42:40;5.10;;;3.20;;
13090;SDS011;6611;52.604;13.438;2022-11-02T18:47:43;3.60;;;2.37;;
13090;SDS011;6611;52.604;13.438;2022-11-02T18:52:44;6.97;;;2.53;;
13090;SDS011;6611;52.604;13.438;2022-11-02T18:57:50;12.33;;;5.87;;
13090;SDS011;6611;52.604;13.438;2022-11-02T19:02:51;18.87;;;10.00;;
13090;SDS011;6611;52.604;13.438;2022-11-02T19:07:53;14.70;;;6.97;;
13090;SDS011;6611;52.604;13.438;2022-11-02T19:13:13;8.77;;;5.07;;
13090;SDS011;6611;52.604;13.438;2022-11-02T19:18:15;8.80;;;4.10;;
13090;SDS011;6611;52.604;13.438;2022-11-02T19:23:16;5.97;;;3.37;;
13090;SDS011;6611;52.604;13.438;2022-11-02T19:28:19;8.80;;;5.43;;
13090;SDS011;6611;52.604;13.438;2022-11-02T19:33:21;11.13;;;5.63;;
13090;SDS011;6611;52.604;13.438;2022-11-02T19:38:23;11.50;;;4.97;;
13090;SDS011;6611;52.604;13.438;2022-11-02T19:43:25;15.27;;;6.03;;
13090;SDS011;6611;52.604;13.438;2022-11-02T19:48:27;12.70;;;6.97;;
13090;SDS011;6611;52.604;13.438;2022-11-02T19:53:30;10.67;;;6.37;;
13090;SDS011;6611;52.604;13.438;2022-11-02T19:58:33;9.23;;;5.73;;
13090;SDS011;6611;52.604;13.438;2022-11-02T20:03:34;11.57;;;5.03;;
13090;SDS011;6611;52.604;13.438;2022-11-02T20:08:36;10.73;;;6.00;;
13090;SDS011;6611;52.604;13.438;2022-11-02T20:13:40;14.03;;;5.93;;
13090;SDS011;6611;52.604;13.438;2022-11-02T20:18:43;11.80;;;6.17;;
13090;SDS011;6611;52.604;13.438;2022-11-02T20:23:46;8.87;;;5.00;;
13090;SDS011;6611;52.604;13.438;2022-11-02T20:28:50;10.90;;;5.30;;
13090;SDS011;6611;52.604;13.438;2022-11-02T20:33:52;8.77;;;4.60;;
13090;SDS011;6611;52.604;13.438;2022-11-02T20:38:53;9.30;;;4.10;;
13090;SDS011;6611;52.604;13.438;2022-11-02T20:43:57;6.37;;;4.23;;
13090;SDS011;6611;52.604;13.438;2022-11-02T20:48:58;6.70;;;4.23;;
13090;SDS011;6611;52.604;13.438;2022-11-02T20:54:00;8.93;;;4.30;;
13090;SDS011;6611;52.604;13.438;2022-11-02T20:59:03;7.03;;;4.40;;
13090;SDS011;6611;52.604;13.438;2022-11-02T21:04:05;5.77;;;4.20;;
13090;SDS011;6611;52.604;13.438;2022-11-02T21:09:06;7.20;;;4.90;;
13090;SDS011;6611;52.604;13.438;2022-11-02T21:14:10;8.30;;;4.40;;
13090;SDS011;6611;52.604;13.438;2022-11-02T21:19:12;8.30;;;5.47;;
13090;SDS011;6611;52.604;13.438;2022-11-02T21:24:13;9.20;;;5.87;;
13090;SDS011;6611;52.604;13.438;2022-11-02T21:29:16;8.63;;;5.53;;
13090;SDS011;6611;52.604;13.438;2022-11-02T21:34:17;11.23;;;5.77;;
13090;SDS011;6611;52.604;13.438;2022-11-02T21:39:19;9.87;;;6.17;;
13090;SDS011;6611;52.604;13.438;2022-11-02T21:44:23;11.90;;;6.83;;
13090;SDS011;6611;52.604;13.438;2022-11-02T21:49:24;12.03;;;7.23;;
13090;SDS011;6611;52.604;13.438;2022-11-02T21:54:26;13.87;;;7.00;;
13090;SDS011;6611;52.604;13.438;2022-11-02T21:59:29;15.40;;;8.03;;
13090;SDS011;6611;52.604;13.438;2022-11-02T22:04:30;15.93;;;8.07;;
13090;SDS011;6611;52.604;13.438;2022-11-02T22:09:32;19.47;;;9.07;;
13090;SDS011;6611;52.604;13.438;2022-11-02T22:14:35;14.70;;;8.23;;
13090;SDS011;6611;52.604;13.438;2022-11-02T22:19:36;15.93;;;8.10;;
13090;SDS011;6611;52.604;13.438;2022-11-02T22:24:38;15.70;;;9.00;;
13090;SDS011;6611;52.604;13.438;2022-11-02T22:29:41;19.00;;;10.67;;
13090;SDS011;6611;52.604;13.438;2022-11-02T22:34:42;18.80;;;11.77;;
13090;SDS011;6611;52.604;13.438;2022-11-02T22:39:45;17.73;;;11.03;;
13090;SDS011;6611;52.604;13.438;2022-11-02T22:44:48;16.93;;;9.83;;
13090;SDS011;6611;52.604;13.438;2022-11-02T22:49:50;17.37;;;8.93;;
13090;SDS011;6611;52.604;13.438;2022-11-02T22:54:51;16.17;;;8.53;;
13090;SDS011;6611;52.604;13.438;2022-11-02T22:59:54;12.17;;;7.43;;
13090;SDS011;6611;52.604;13.438;2022-11-02T23:04:56;10.10;;;6.50;;
13090;SDS011;6611;52.604;13.438;2022-11-02T23:09:57;11.87;;;6.70;;
13090;SDS011;6611;52.604;13.438;2022-11-02T23:15:00;9.40;;;6.67;;
13090;SDS011;6611;52.604;13.438;2022-11-02T23:20:02;9.93;;;6.17;;
13090;SDS011;6611;52.604;13.438;2022-11-02T23:25:04;11.37;;;6.60;;
13090;SDS011;6611;52.604;13.438;2022-11-02T23:30:15;12.57;;;6.30;;
13090;SDS011;6611;52.604;13.438;2022-11-02T23:35:34;7.73;;;5.43;;
13090;SDS011;6611;52.604;13.438;2022-11-02T23:40:53;9.00;;;5.40;;
13090;SDS011;6611;52.604;13.438;2022-11-02T23:45:57;10.47;;;5.73;;
13090;SDS011;6611;52.604;13.438;2022-11-02T23:50:58;7.40;;;5.20;;
13090;SDS011;6611;52.604;13.438;2022-11-02T23:56:17;7.53;;;4.90;;
